Archival Weather

Rochelle Muni/Koritz Fld

Rochelle, Illinois (KRPJ)

Report from: Sunday, February 5, 2023 6:35 AM CST
Current time: Friday, April 19, 2024 5:09 AM CDT

Current weather – Weather history – Daily summaries
Weather forecast

Temperature-2.6°C (27.3°F)
Wind chill-7.2°C (19.1°F)
Dew point-3.3°C (26.1°F)
Winds 7 kts (3.6 m/s, 8.1 mph) Southwest (230°)
Visibility10 mi. (16.1 km)
Clouds Sky clear
Altimeter29.85 in.Hg (1011 mB)
Relative humidity95 %
Density altitude-2,007 ft. (-612 m)
Remarks Fully automated report
Automated weather observing station with precipitation discriminator
Lightning detection system not operating
Flight conditions Visual Meteorological Conditions
Raw dataKRPJ 051235Z AUTO 23007KT 10SM CLR M03/M03 A2985 RMK AO2 T10261033 TSNO
An error has occurred. This application may no longer respond until reloaded. Reload 🗙